createdAt,value
2022-09-18T00:15:34.781Z,10.94
2022-09-18T00:35:34.778Z,10.92
2022-09-18T00:55:34.790Z,10.95
2022-09-18T01:35:41.370Z,11.04
2022-09-18T01:55:34.766Z,11.1
2022-09-18T02:15:34.757Z,11.17
2022-09-18T02:35:34.802Z,11.21
2022-09-18T02:55:34.750Z,11.23
2022-09-18T03:15:34.738Z,11.28
2022-09-18T03:35:34.776Z,11.29
2022-09-18T03:55:34.737Z,10.96
2022-09-18T04:35:34.742Z,10.8
2022-09-18T04:55:34.706Z,10.79
2022-09-18T05:35:34.703Z,10.8
2022-09-18T05:55:34.699Z,10.84
2022-09-18T06:15:34.709Z,10.92
2022-09-18T06:35:34.707Z,10.96
2022-09-18T06:55:34.699Z,11.06
2022-09-18T07:35:34.695Z,11.05
2022-09-18T08:15:34.677Z,11.22
2022-09-18T08:35:34.665Z,11.19
2022-09-18T08:55:34.679Z,10.88
2022-09-18T09:15:34.656Z,10.94
2022-09-18T09:35:34.674Z,11.01
2022-09-18T09:55:34.670Z,11.17
2022-09-18T10:15:34.676Z,11.23
2022-09-18T10:35:34.663Z,11.33
2022-09-18T11:15:34.653Z,11.71
2022-09-18T11:35:34.639Z,11.84
2022-09-18T11:55:34.640Z,11.92
2022-09-18T12:35:33.252Z,12.08
2022-09-18T12:55:33.921Z,12.09
2022-09-18T13:15:33.891Z,11.82
2022-09-18T13:55:34.597Z,10.9
2022-09-18T14:15:34.580Z,10.92
2022-09-18T14:35:34.546Z,10.96
2022-09-18T14:55:34.613Z,10.78
2022-09-18T15:15:34.552Z,10.66
2022-09-18T15:35:34.591Z,10.49
2022-09-18T16:35:34.593Z,10
2022-09-18T17:15:34.578Z,9.43
2022-09-18T17:35:34.576Z,9.26
2022-09-18T18:15:34.552Z,9.26
2022-09-18T18:35:34.576Z,9.13
2022-09-18T18:55:34.568Z,9.05
2022-09-18T19:15:37.832Z,8.95
2022-09-18T19:35:34.559Z,8.85
2022-09-18T19:55:34.569Z,8.84
2022-09-18T20:15:34.587Z,8.87
2022-09-18T20:35:34.556Z,8.93
2022-09-18T20:55:34.591Z,9.05
2022-09-18T21:15:34.563Z,9.46
2022-09-18T21:35:34.553Z,9.55
2022-09-18T21:55:34.564Z,9.53
2022-09-18T22:15:34.567Z,9.57
2022-09-18T22:35:34.557Z,9.59
2022-09-18T22:55:34.569Z,9.7
2022-09-18T23:15:34.554Z,9.7
2022-09-18T23:35:34.562Z,9.66
2022-09-18T23:55:34.550Z,9.59
